Time;durP1;ratioP1;P1;durP2;ratioP2;P2;SDS_P1;SDS_P2;PMS_P1;PMS_P2;Temp;Humidity;BMP_temperature;BMP_pressure;BME280_temperature;BME280_humidity;BME280_pressure;Samples;Min_cycle;Max_cycle;Signal;HPM_P1;HPM_P2
2021/05/08 00:00:35;;;;;;;;;13.80;11.80;;;;;16.41;63.57;100168.10;478363;114;367149;-75
2021/05/08 00:01:39;;;;;;;;;11.20;11.20;;;;;16.43;63.17;100164.42;478809;114;365129;-76
2021/05/08 00:02:43;;;;;;;;;12.10;11.30;;;;;16.43;62.63;100166.08;479042;114;365753;-76
2021/05/08 00:03:46;;;;;;;;;11.00;9.70;;;;;16.43;62.63;100166.08;479066;114;368311;-76
2021/05/08 00:04:50;;;;;;;;;13.30;11.30;;;;;16.44;62.55;100166.92;478512;114;366506;-77
2021/05/08 00:05:54;;;;;;;;;12.70;12.00;;;;;16.45;62.42;100163.25;479141;114;367389;-76
2021/05/08 00:06:59;;;;;;;;;13.20;11.50;;;;;16.45;62.67;100157.88;479144;114;363098;-76
2021/05/08 00:08:03;;;;;;;;;9.80;9.80;;;;;16.46;62.06;100156.89;479214;114;365576;-74
2021/05/08 00:09:08;;;;;;;;;12.10;11.50;;;;;16.49;62.01;100164.61;479391;114;363532;-74
2021/05/08 00:10:13;;;;;;;;;10.70;9.50;;;;;16.49;61.92;100159.24;479201;114;362980;-75
2021/05/08 00:11:17;;;;;;;;;9.70;9.20;;;;;16.48;61.89;100154.02;478986;114;362628;-75
2021/05/08 00:12:21;;;;;;;;;13.90;11.10;;;;;16.45;61.88;100157.88;479475;114;367010;-75
2021/05/08 00:13:25;;;;;;;;;14.00;12.70;;;;;16.48;63.01;100157.55;479445;114;363752;-76
2021/05/08 00:14:29;;;;;;;;;12.10;12.10;;;;;16.48;61.95;100157.55;479481;114;363248;-75
2021/05/08 00:15:32;;;;;;;;;13.90;12.00;;;;;16.48;61.95;100157.55;479440;114;362575;-76
2021/05/08 00:16:37;;;;;;;;;12.30;11.40;;;;;16.48;62.62;100159.39;479265;114;356672;-76
2021/05/08 00:17:41;;;;;;;;;5.10;4.80;;;;;16.48;63.32;100162.08;478852;114;358448;-76
2021/05/08 00:18:45;;;;;;;;;11.40;10.40;;;;;16.50;64.09;100157.38;479460;114;361313;-76
2021/05/08 00:19:49;;;;;;;;;12.00;12.00;;;;;16.50;64.09;100157.38;479466;114;362583;-75
2021/05/08 00:20:53;;;;;;;;;9.70;7.40;;;;;16.49;64.02;100158.39;479590;114;356519;-75
2021/05/08 00:21:57;;;;;;;;;13.70;12.40;;;;;16.50;63.28;100158.22;478617;114;355972;-75
2021/05/08 00:23:01;;;;;;;;;11.70;11.40;;;;;16.49;62.84;100159.24;480281;113;364505;-74
2021/05/08 00:24:06;;;;;;;;;13.80;12.20;;;;;16.45;64.64;100160.56;478321;114;364787;-74
2021/05/08 00:25:11;;;;;;;;;11.40;10.60;;;;;16.46;63.31;100159.57;479759;113;365062;-75
2021/05/08 00:26:17;;;;;;;;;13.50;10.80;;;;;16.46;63.31;100159.57;477780;114;366410;-76
2021/05/08 00:27:21;;;;;;;;;13.60;12.80;;;;;16.49;62.76;100163.77;480277;113;366592;-76
2021/05/08 00:28:24;;;;;;;;;13.80;12.70;;;;;16.49;63.30;100156.55;477890;114;364917;-77
2021/05/08 00:29:28;;;;;;;;;12.10;10.70;;;;;16.49;63.13;100151.19;480297;113;366139;-76
2021/05/08 00:30:34;;;;;;;;;15.00;13.10;;;;;16.50;63.36;100150.16;478144;114;366167;-74
2021/05/08 00:31:38;;;;;;;;;11.00;10.20;;;;;16.49;63.12;100153.02;478065;114;358441;-77
2021/05/08 00:32:42;;;;;;;;;11.90;11.70;;;;;16.46;63.31;100156.89;480376;113;363019;-76
2021/05/08 00:33:46;;;;;;;;;14.10;12.60;;;;;16.46;64.04;100148.83;480057;113;365212;-75
2021/05/08 00:34:50;;;;;;;;;13.40;11.90;;;;;16.47;63.58;100146.96;478327;114;361759;-75
2021/05/08 00:35:53;;;;;;;;;11.80;11.80;;;;;16.47;63.39;100155.86;480270;113;365906;-75
2021/05/08 00:36:57;;;;;;;;;13.30;11.10;;;;;16.48;64.72;100160.23;478370;114;365926;-75
2021/05/08 00:38:01;;;;;;;;;8.00;7.90;;;;;16.48;64.72;100160.23;480445;113;362348;-75
2021/05/08 00:39:06;;;;;;;;;11.80;10.80;;;;;16.47;64.08;100160.38;478334;114;367823;-75
2021/05/08 00:40:12;;;;;;;;;11.50;9.40;;;;;16.47;63.37;100160.38;479816;113;364414;-74
2021/05/08 00:41:16;;;;;;;;;13.30;10.50;;;;;16.47;63.37;100160.38;477828;114;359372;-75
2021/05/08 00:42:20;;;;;;;;;2.30;2.10;;;;;16.42;64.03;100163.58;480513;113;356226;-76
2021/05/08 00:43:24;;;;;;;;;11.60;11.10;;;;;16.39;63.31;100169.28;480356;113;362793;-75
2021/05/08 00:44:28;;;;;;;;;13.10;12.90;;;;;16.34;62.94;100177.80;478387;114;359464;-72
2021/05/08 00:45:32;;;;;;;;;12.90;10.50;;;;;16.34;63.75;100166.22;480300;113;365685;-74
2021/05/08 00:46:36;;;;;;;;;12.10;11.70;;;;;16.35;64.32;100167.91;478103;114;364049;-74
2021/05/08 00:47:42;;;;;;;;;12.10;11.30;;;;;16.35;64.32;100167.91;479573;113;365333;-74
2021/05/08 00:48:46;;;;;;;;;10.80;10.30;;;;;16.38;63.87;100167.58;477839;114;365898;-74
2021/05/08 00:49:50;;;;;;;;;11.80;9.80;;;;;16.38;64.08;100175.64;478362;114;359368;-73
2021/05/08 00:50:54;;;;;;;;;9.70;9.40;;;;;16.35;63.44;100175.97;478091;114;363087;-74
2021/05/08 00:51:59;;;;;;;;;12.80;11.60;;;;;16.35;64.48;100175.97;480093;113;357971;-74
2021/05/08 00:53:04;;;;;;;;;12.60;12.60;;;;;16.33;63.89;100184.20;472501;115;367576;-72
2021/05/08 00:54:09;;;;;;;;;11.30;9.90;;;;;16.31;64.64;100190.70;472843;115;366411;-72
2021/05/08 00:55:13;;;;;;;;;11.90;11.50;;;;;16.28;64.82;100197.24;480034;113;368909;-73
2021/05/08 00:56:17;;;;;;;;;15.90;14.70;;;;;16.27;64.79;100197.42;478031;114;371203;-74
2021/05/08 00:57:22;;;;;;;;;15.60;13.20;;;;;16.26;66.08;100201.09;479547;113;368771;-76
2021/05/08 00:58:26;;;;;;;;;11.50;10.50;;;;;16.26;66.08;100201.09;477655;114;360747;-74
2021/05/08 00:59:30;;;;;;;;;12.80;11.90;;;;;16.26;65.88;100210.00;480281;113;361813;-72
2021/05/08 01:00:35;;;;;;;;;13.50;12.00;;;;;16.23;65.72;100213.00;477847;114;356945;-73
2021/05/08 01:01:40;;;;;;;;;13.00;12.40;;;;;16.21;65.60;100216.86;477962;114;369026;-73
2021/05/08 01:02:44;;;;;;;;;12.00;11.20;;;;;16.20;65.69;100217.84;479753;113;360115;-73
2021/05/08 01:03:49;;;;;;;;;12.80;12.20;;;;;16.18;65.66;100214.46;478043;114;360968;-72
2021/05/08 01:04:53;;;;;;;;;11.10;10.10;;;;;16.19;65.47;100221.52;479857;113;364973;-73
2021/05/08 01:05:57;;;;;;;;;13.00;11.60;;;;;16.19;65.40;100225.05;478301;114;363333;-73
2021/05/08 01:07:01;;;;;;;;;12.50;11.60;;;;;16.20;65.59;100231.27;480286;113;367153;-74
2021/05/08 01:08:06;;;;;;;;;11.90;11.40;;;;;16.19;65.69;100241.15;478051;114;366423;-73
2021/05/08 01:09:10;;;;;;;;;13.70;12.40;;;;;16.19;65.69;100241.15;480015;113;362440;-73
2021/05/08 01:10:16;;;;;;;;;13.50;12.20;;;;;16.16;66.71;100232.58;477676;114;364412;-73
2021/05/08 01:11:21;;;;;;;;;14.40;13.00;;;;;16.15;66.63;100237.09;479681;113;367439;-73
2021/05/08 01:12:25;;;;;;;;;14.50;13.10;;;;;16.16;66.50;100232.58;478316;114;358653;-74
2021/05/08 01:13:29;;;;;;;;;13.10;13.10;;;;;16.14;66.91;100227.39;478032;114;365516;-73
2021/05/08 01:14:33;;;;;;;;;13.50;13.40;;;;;16.13;67.04;100231.06;480008;113;362232;-74
2021/05/08 01:15:37;;;;;;;;;14.50;13.80;;;;;16.14;67.43;100222.02;480012;113;369343;-75
2021/05/08 01:16:44;;;;;;;;;15.20;14.20;;;;;16.12;67.65;100215.95;477715;114;366712;-74
2021/05/08 01:17:48;;;;;;;;;14.00;12.40;;;;;16.11;68.56;100213.45;479982;113;368286;-75
2021/05/08 01:18:54;;;;;;;;;14.30;11.50;;;;;16.13;67.78;100217.64;478354;114;366914;-74
2021/05/08 01:19:58;;;;;;;;;11.90;11.90;;;;;16.13;67.78;100217.64;479806;113;365610;-72
2021/05/08 01:21:02;;;;;;;;;14.50;12.70;;;;;16.15;68.92;100215.62;478312;114;367349;-71
2021/05/08 01:22:06;;;;;;;;;11.20;10.40;;;;;16.14;70.51;100202.39;480287;113;366740;-71
2021/05/08 01:23:11;;;;;;;;;12.60;12.60;;;;;16.12;69.25;100209.74;477854;114;358055;-73
2021/05/08 01:24:15;;;;;;;;;13.90;13.90;;;;;16.12;69.12;100204.38;478328;114;366328;-72
2021/05/08 01:25:21;;;;;;;;;13.30;11.60;;;;;16.13;71.55;100201.55;480050;113;363646;-73
2021/05/08 01:26:26;;;;;;;;;14.30;12.60;;;;;16.13;71.55;100201.55;479742;113;366694;-73
2021/05/08 01:27:29;;;;;;;;;15.00;14.00;;;;;16.14;69.38;100207.77;480255;113;370459;-74
2021/05/08 01:28:33;;;;;;;;;14.40;12.30;;;;;16.13;69.39;100206.06;478278;114;366529;-74
2021/05/08 01:29:38;;;;;;;;;12.80;11.20;;;;;16.14;69.84;100205.92;478096;114;368238;-73
2021/05/08 01:30:43;;;;;;;;;12.80;12.00;;;;;16.12;68.95;100207.91;477791;114;366529;-74
2021/05/08 01:31:49;;;;;;;;;15.60;15.60;;;;;16.09;68.68;100204.70;477332;114;363133;-73
2021/05/08 01:32:54;;;;;;;;;17.70;14.70;;;;;16.07;72.25;100204.88;479932;113;372529;-72
2021/05/08 01:33:58;;;;;;;;;12.70;12.30;;;;;16.06;70.76;100205.87;479722;113;365670;-72
2021/05/08 01:35:02;;;;;;;;;13.30;12.70;;;;;15.94;71.04;100183.02;478002;114;369853;-72
2021/05/08 01:36:06;;;;;;;;;14.90;13.20;;;;;15.94;71.04;100183.02;479531;113;367506;-73
2021/05/08 01:37:10;;;;;;;;;15.40;14.70;;;;;16.07;73.52;100198.66;480236;113;369300;-73
2021/05/08 01:38:14;;;;;;;;;16.00;14.20;;;;;16.07;73.52;100198.66;478304;114;368813;-72
2021/05/08 01:39:18;;;;;;;;;15.00;14.70;;;;;16.03;73.40;100195.45;479978;113;367479;-73
2021/05/08 01:40:27;;;;;;;;;13.90;13.80;;;;;16.03;73.40;100195.45;478025;114;368478;-72
2021/05/08 01:41:31;;;;;;;;;17.10;16.00;;;;;16.03;72.58;100190.09;477464;114;371786;-71
2021/05/08 01:42:35;;;;;;;;;15.50;13.40;;;;;16.04;73.71;100181.05;480257;113;369980;-73
2021/05/08 01:43:39;;;;;;;;;12.80;11.30;;;;;16.04;73.71;100181.05;478015;114;367574;-71
2021/05/08 01:44:43;;;;;;;;;16.20;14.90;;;;;16.05;71.76;100181.90;480269;113;368257;-72
2021/05/08 01:45:48;;;;;;;;;15.90;14.40;;;;;16.05;72.54;100176.53;479792;113;361761;-71
2021/05/08 01:46:53;;;;;;;;;12.80;12.80;;;;;16.05;72.54;100176.53;478037;114;367700;-72
2021/05/08 01:47:57;;;;;;;;;11.00;9.90;;;;;16.02;73.06;100171.49;479825;113;364698;-72
2021/05/08 01:49:01;;;;;;;;;17.10;13.40;;;;;16.00;72.66;100160.06;480318;113;368315;-71
2021/05/08 01:50:08;;;;;;;;;18.40;14.10;;;;;15.98;72.60;100160.24;479960;113;368819;-72
2021/05/08 01:51:11;;;;;;;;;11.50;11.10;;;;;15.98;72.60;100160.24;477412;114;367824;-71
2021/05/08 01:52:16;;;;;;;;;13.00;12.50;;;;;15.97;72.19;100157.70;480052;113;368896;-72
2021/05/08 01:53:20;;;;;;;;;17.80;15.40;;;;;15.96;73.99;100153.33;478238;114;369377;-72
2021/05/08 01:54:24;;;;;;;;;13.70;12.70;;;;;15.94;72.86;100150.83;478034;114;365946;-73
2021/05/08 01:55:29;;;;;;;;;12.10;11.10;;;;;15.87;73.14;100134.53;480473;113;366343;-72
2021/05/08 01:56:36;;;;;;;;;14.70;14.10;;;;;15.84;73.72;100128.64;479541;113;372515;-72
2021/05/08 01:57:42;;;;;;;;;14.40;12.20;;;;;15.84;73.72;100128.64;479794;113;368855;-72
2021/05/08 01:58:46;;;;;;;;;15.00;14.90;;;;;15.85;73.98;100120.45;478045;114;372121;-71
2021/05/08 01:59:50;;;;;;;;;13.90;13.90;;;;;15.85;74.00;100114.25;480297;113;370505;-73
2021/05/08 02:00:55;;;;;;;;;18.00;14.70;;;;;15.86;73.37;100124.80;477826;114;364801;-71
2021/05/08 02:01:59;;;;;;;;;12.00;10.90;;;;;15.85;73.14;100123.14;480087;113;368996;-70
2021/05/08 02:03:04;;;;;;;;;20.20;18.70;;;;;15.83;73.13;100121.59;480185;113;376001;-71
2021/05/08 02:04:10;;;;;;;;;22.00;21.50;;;;;15.82;73.98;100126.14;478939;113;378785;-71
2021/05/08 02:05:14;;;;;;;;;25.00;21.80;;;;;15.82;73.48;100118.09;479852;113;378596;-72
2021/05/08 02:06:19;;;;;;;;;33.00;30.10;;;;;15.82;75.57;100115.41;477514;114;381671;-71
2021/05/08 02:07:24;;;;;;;;;42.20;36.30;;;;;15.82;75.57;100115.41;476756;114;385995;-71
2021/05/08 02:08:28;;;;;;;;;35.30;31.40;;;;;15.79;73.41;100121.07;480033;113;384245;-71
2021/05/08 02:09:33;;;;;;;;;25.80;24.80;;;;;15.78;73.00;100123.93;477786;114;383358;-71
2021/05/08 02:10:39;;;;;;;;;33.60;27.70;;;;;15.77;73.44;100119.55;479502;113;382289;-71
2021/05/08 02:11:43;;;;;;;;;40.60;34.70;;;;;15.77;73.44;100119.55;477800;114;384077;-70
2021/05/08 02:12:47;;;;;;;;;44.20;36.30;;;;;15.78;75.31;100116.73;480034;113;386080;-70
2021/05/08 02:13:51;;;;;;;;;24.50;23.50;;;;;15.78;74.44;100114.05;477984;114;380093;-70
2021/05/08 02:14:55;;;;;;;;;20.40;18.60;;;;;15.78;73.21;100107.84;479904;113;375442;-71
2021/05/08 02:16:00;;;;;;;;;15.60;13.00;;;;;15.78;73.21;100107.84;478085;114;361588;-72
2021/05/08 02:17:04;;;;;;;;;15.60;13.50;;;;;15.73;72.50;100110.98;480046;113;367094;-72
2021/05/08 02:18:08;;;;;;;;;13.00;12.80;;;;;15.70;72.98;100108.63;478384;114;360673;-72
2021/05/08 02:19:12;;;;;;;;;15.00;12.60;;;;;15.70;72.48;100113.99;473141;115;362759;-71
2021/05/08 02:20:21;;;;;;;;;14.20;11.40;;;;;15.69;73.05;100111.48;465112;117;371323;-71
2021/05/08 02:21:26;;;;;;;;;13.40;12.30;;;;;15.67;72.97;100111.63;473628;113;367242;-72
2021/05/08 02:22:30;;;;;;;;;11.30;11.30;;;;;15.66;73.32;100101.94;480102;113;360931;-72
2021/05/08 02:23:35;;;;;;;;;15.70;13.60;;;;;15.64;72.87;100101.23;478042;114;373459;-72
2021/05/08 02:24:39;;;;;;;;;12.90;12.70;;;;;15.63;73.71;100090.69;480291;113;361216;-74
2021/05/08 02:25:43;;;;;;;;;12.40;12.10;;;;;15.63;73.71;100090.69;480318;113;369577;-73
2021/05/08 02:26:47;;;;;;;;;6.30;6.30;;;;;15.60;73.07;100096.37;478175;114;365211;-71
2021/05/08 02:27:51;;;;;;;;;12.30;10.70;;;;;15.58;72.88;100099.19;478314;114;366689;-72
2021/05/08 02:28:55;;;;;;;;;11.50;10.00;;;;;15.58;73.75;100088.47;478352;114;364147;-73
2021/05/08 02:29:59;;;;;;;;;15.00;11.60;;;;;15.54;73.12;100091.65;478285;114;369856;-74
2021/05/08 02:31:03;;;;;;;;;14.10;12.60;;;;;15.52;73.73;100098.98;472753;115;370905;-73
2021/05/08 02:32:08;;;;;;;;;12.60;11.70;;;;;15.51;73.42;100097.33;473149;115;372194;-73
2021/05/08 02:33:12;;;;;;;;;13.40;11.20;;;;;15.51;73.68;100095.46;479603;113;368685;-73
2021/05/08 02:34:16;;;;;;;;;12.30;11.40;;;;;15.51;74.36;100087.42;478127;114;363117;-73
2021/05/08 02:35:20;;;;;;;;;11.40;11.30;;;;;15.50;73.96;100083.08;479874;113;362788;-74
2021/05/08 02:36:26;;;;;;;;;13.60;11.40;;;;;15.50;74.71;100087.59;479731;113;361932;-73
2021/05/08 02:37:30;;;;;;;;;11.40;10.30;;;;;15.50;74.71;100087.59;480338;113;365603;-73
2021/05/08 02:38:34;;;;;;;;;11.50;11.30;;;;;15.49;74.40;100089.44;480313;113;363359;-74
2021/05/08 02:39:38;;;;;;;;;13.70;12.30;;;;;15.48;74.77;100087.74;472760;115;366841;-73
2021/05/08 02:40:44;;;;;;;;;13.10;12.60;;;;;15.49;74.20;100089.44;472815;115;370536;-73
2021/05/08 02:41:48;;;;;;;;;14.00;11.60;;;;;15.47;75.38;100082.52;478252;114;362525;-73
2021/05/08 02:42:52;;;;;;;;;12.80;10.50;;;;;15.47;75.38;100082.52;478290;114;369569;-72
2021/05/08 02:43:57;;;;;;;;;14.40;13.10;;;;;15.49;74.93;100084.08;479747;113;366572;-72
2021/05/08 02:45:01;;;;;;;;;16.00;14.10;;;;;15.46;74.79;100087.04;478029;114;374518;-72
2021/05/08 02:46:05;;;;;;;;;12.20;12.00;;;;;15.46;74.79;100087.04;478064;114;364890;-73
2021/05/08 02:47:17;;;;;;;;;13.10;12.10;;;;;15.46;74.46;100095.08;480317;113;362136;-74
2021/05/08 02:48:22;;;;;;;;;13.70;12.40;;;;;15.46;74.46;100095.08;477838;114;366496;-72
2021/05/08 02:49:33;;;;;;;;;13.40;12.00;;;;;15.44;74.18;100091.73;472889;115;361267;-72
2021/05/08 02:50:38;;;;;;;;;5.00;4.30;;;;;15.44;74.18;100091.73;474092;113;363740;-73
2021/05/08 02:51:44;;;;;;;;;11.70;11.40;;;;;15.38;74.79;100078.94;480048;113;362433;-72
2021/05/08 02:52:48;;;;;;;;;14.80;13.40;;;;;15.40;74.30;100093.04;478386;114;360957;-75
2021/05/08 02:53:52;;;;;;;;;12.40;11.70;;;;;15.38;74.90;100094.20;480334;113;368511;-75
2021/05/08 02:54:55;;;;;;;;;14.20;12.50;;;;;15.38;75.11;100088.84;480258;113;369597;-75
2021/05/08 02:56:00;;;;;;;;;15.50;13.60;;;;;15.37;75.31;100082.64;478019;114;372454;-75
2021/05/08 02:57:06;;;;;;;;;12.50;11.50;;;;;15.38;75.60;100081.62;477530;114;370472;-75
2021/05/08 02:58:10;;;;;;;;;13.30;13.10;;;;;15.36;75.43;100083.63;477998;114;373074;-76
2021/05/08 02:59:15;;;;;;;;;16.10;14.00;;;;;15.34;76.21;100074.92;479676;113;373154;-76
2021/05/08 03:00:21;;;;;;;;;14.60;13.50;;;;;15.35;76.57;100073.90;478281;114;372718;-76
2021/05/08 03:01:25;;;;;;;;;14.10;12.00;;;;;15.28;76.51;100073.69;479782;113;372186;-76
2021/05/08 03:02:29;;;;;;;;;13.70;12.80;;;;;15.31;77.08;100076.08;478225;114;367072;-77
2021/05/08 03:03:33;;;;;;;;;14.90;13.50;;;;;15.34;77.88;100081.13;473001;115;373481;-77
2021/05/08 03:04:37;;;;;;;;;15.20;13.50;;;;;15.34;77.88;100081.13;473308;115;373926;-77
2021/05/08 03:05:41;;;;;;;;;12.60;9.40;;;;;15.36;77.13;100068.39;480017;113;372615;-77
2021/05/08 03:06:47;;;;;;;;;15.50;15.50;;;;;15.35;77.12;100063.18;479565;113;367153;-77
2021/05/08 03:07:51;;;;;;;;;16.40;14.80;;;;;15.36;77.75;100062.19;478262;114;366519;-76
2021/05/08 03:08:55;;;;;;;;;15.50;14.00;;;;;15.35;78.73;100073.90;473087;115;367023;-76
2021/05/08 03:09:59;;;;;;;;;15.80;13.80;;;;;15.32;77.97;100072.38;473142;115;373693;-78
2021/05/08 03:11:03;;;;;;;;;8.90;7.70;;;;;15.32;77.97;100072.38;480138;113;363110;-77
2021/05/08 03:12:09;;;;;;;;;9.00;6.50;;;;;15.34;78.22;100075.77;478129;114;365673;-77
2021/05/08 03:13:13;;;;;;;;;15.60;13.80;;;;;15.35;78.48;100076.58;477659;114;375322;-76
2021/05/08 03:14:18;;;;;;;;;15.70;13.90;;;;;15.34;78.40;100088.31;479918;113;374825;-76
2021/05/08 03:15:23;;;;;;;;;13.90;12.70;;;;;15.35;78.10;100082.78;480015;113;373741;-76
2021/05/08 03:16:29;;;;;;;;;15.70;15.00;;;;;15.34;78.52;100083.80;477291;113;375695;-76
2021/05/08 03:17:33;;;;;;;;;14.70;13.90;;;;;15.35;78.35;100084.62;479648;113;374357;-75
2021/05/08 03:18:37;;;;;;;;;16.70;15.70;;;;;15.33;78.40;100079.44;478216;114;377155;-75
2021/05/08 03:19:41;;;;;;;;;13.20;12.80;;;;;15.33;78.40;100079.44;478194;114;375227;-76
2021/05/08 03:20:45;;;;;;;;;18.40;16.70;;;;;15.34;78.91;100075.77;479853;113;375937;-77
2021/05/08 03:21:50;;;;;;;;;16.40;15.20;;;;;15.34;78.44;100080.28;477964;114;367405;-78
2021/05/08 03:22:54;;;;;;;;;15.70;14.20;;;;;15.35;78.22;100077.42;480183;113;375658;-79
2021/05/08 03:23:58;;;;;;;;;16.40;14.30;;;;;15.35;78.22;100077.42;478224;114;376008;-77
2021/05/08 03:25:02;;;;;;;;;14.50;13.80;;;;;15.34;78.60;100067.73;478236;114;373920;-77
2021/05/08 03:26:06;;;;;;;;;16.60;16.10;;;;;15.33;78.66;100067.87;479956;113;376728;-80
2021/05/08 03:27:10;;;;;;;;;14.80;14.80;;;;;15.31;78.56;100059.16;478239;114;374074;-78
2021/05/08 03:28:14;;;;;;;;;16.40;16.40;;;;;15.30;79.26;100054.80;478234;114;377238;-76
2021/05/08 03:29:18;;;;;;;;;16.50;15.00;;;;;15.32;79.29;100067.02;479522;113;375251;-77
2021/05/08 03:30:23;;;;;;;;;19.70;16.40;;;;;15.31;79.72;100069.88;478009;114;375844;-77
2021/05/08 03:31:29;;;;;;;;;15.10;14.90;;;;;15.29;79.60;100071.86;477301;114;366294;-77
2021/05/08 03:32:33;;;;;;;;;15.70;15.40;;;;;15.29;79.60;100071.86;473050;115;371090;-77
2021/05/08 03:33:37;;;;;;;;;26.60;24.00;;;;;15.31;79.68;100069.88;465385;117;375072;-77
2021/05/08 03:34:41;;;;;;;;;17.90;15.60;;;;;15.31;80.35;100064.52;473200;115;375429;-77
2021/05/08 03:35:45;;;;;;;;;15.10;15.10;;;;;15.28;80.16;100056.80;472848;115;375424;-75
2021/05/08 03:36:50;;;;;;;;;19.60;17.50;;;;;15.26;80.55;100056.09;464882;117;376019;-77
2021/05/08 03:37:54;;;;;;;;;14.70;14.00;;;;;15.25;82.00;100060.61;473287;115;373367;-78
2021/05/08 03:38:58;;;;;;;;;16.10;15.20;;;;;15.28;81.74;100059.48;480170;113;374265;-74
2021/05/08 03:40:02;;;;;;;;;18.30;16.90;;;;;15.29;81.58;100059.30;480198;113;367678;-75
2021/05/08 03:41:06;;;;;;;;;18.20;15.30;;;;;15.30;81.96;100061.00;478156;114;374719;-75
2021/05/08 03:42:10;;;;;;;;;18.30;16.50;;;;;15.30;82.41;100057.47;480137;113;376438;-75
2021/05/08 03:43:14;;;;;;;;;15.50;14.30;;;;;15.30;82.41;100057.47;478147;114;376153;-75
2021/05/08 03:44:17;;;;;;;;;19.50;16.80;;;;;15.27;82.40;100057.80;480193;113;377050;-74
2021/05/08 03:45:21;;;;;;;;;20.80;16.70;;;;;15.27;82.40;100057.80;478260;114;376174;-75
2021/05/08 03:46:25;;;;;;;;;19.10;17.80;;;;;15.27;82.71;100063.15;479899;113;377575;-76
2021/05/08 03:47:29;;;;;;;;;15.00;15.00;;;;;15.20;82.98;100067.45;478237;114;373829;-75
2021/05/08 03:48:33;;;;;;;;;18.10;17.40;;;;;15.20;82.98;100067.45;478193;114;375827;-75
2021/05/08 03:49:38;;;;;;;;;18.00;17.20;;;;;15.20;83.57;100067.45;479865;113;378098;-76
2021/05/08 03:50:45;;;;;;;;;20.30;18.50;;;;;15.17;84.47;100067.77;479433;113;378360;-75
2021/05/08 03:51:48;;;;;;;;;15.20;14.00;;;;;15.17;84.47;100067.77;478010;114;376040;-75
2021/05/08 03:52:52;;;;;;;;;18.70;15.60;;;;;15.15;84.98;100065.27;479745;113;374542;-74
2021/05/08 03:53:57;;;;;;;;;16.20;15.40;;;;;15.14;85.45;100073.45;478251;114;374626;-75
2021/05/08 03:55:02;;;;;;;;;18.70;17.80;;;;;15.14;85.45;100073.45;479888;113;371036;-77
2021/05/08 03:56:06;;;;;;;;;21.20;19.40;;;;;15.14;85.89;100070.77;477186;113;369973;-73
2021/05/08 03:57:10;;;;;;;;;19.80;17.20;;;;;15.12;85.85;100064.73;480087;113;377937;-76
2021/05/08 03:58:14;;;;;;;;;19.60;18.20;;;;;15.11;85.75;100063.05;477961;114;369761;-77
2021/05/08 03:59:18;;;;;;;;;16.50;16.20;;;;;15.11;85.75;100063.05;480222;113;378840;-75
2021/05/08 04:00:23;;;;;;;;;17.70;13.20;;;;;15.10;86.33;100051.48;478017;114;377543;-76
2021/05/08 04:01:27;;;;;;;;;17.20;16.40;;;;;15.07;86.43;100054.48;478175;114;379228;-77
2021/05/08 04:02:31;;;;;;;;;17.50;17.50;;;;;15.04;87.50;100056.63;480201;113;378075;-78
2021/05/08 04:03:35;;;;;;;;;20.90;19.00;;;;;15.03;87.48;100063.83;478131;114;378101;-79
2021/05/08 04:04:39;;;;;;;;;41.80;34.70;;;;;15.03;87.32;100054.97;478016;114;387704;-77
2021/05/08 04:05:43;;;;;;;;;25.20;24.00;;;;;15.03;87.32;100054.97;480031;113;381746;-77
2021/05/08 04:06:48;;;;;;;;;48.40;41.40;;;;;15.00;88.00;100056.10;477537;114;385308;-77
2021/05/08 04:07:52;;;;;;;;;46.10;38.40;;;;;14.99;87.69;100048.24;479941;113;385918;-80
2021/05/08 04:08:56;;;;;;;;;20.90;19.50;;;;;14.96;87.37;100043.20;477811;114;373835;-77
2021/05/08 04:10:00;;;;;;;;;17.00;15.30;;;;;14.96;87.37;100043.20;480130;113;378899;-80
2021/05/08 04:11:03;;;;;;;;;24.50;21.20;;;;;14.94;88.18;100069.28;478136;114;378292;-77
2021/05/08 04:12:08;;;;;;;;;20.60;18.00;;;;;14.91;87.04;100065.08;480123;113;378806;-79
2021/05/08 04:13:12;;;;;;;;;19.10;17.10;;;;;14.91;87.04;100065.08;479893;113;373106;-76
2021/05/08 04:14:16;;;;;;;;;21.90;20.50;;;;;14.88;88.07;100061.88;478125;114;382779;-78
2021/05/08 04:15:20;;;;;;;;;18.60;17.80;;;;;14.87;88.03;100070.92;478138;114;379312;-77
2021/05/08 04:16:24;;;;;;;;;18.20;17.20;;;;;14.87;88.03;100070.92;477910;114;380792;-76
2021/05/08 04:17:28;;;;;;;;;22.40;19.20;;;;;14.84;88.22;100067.54;480127;113;379671;-77
2021/05/08 04:18:32;;;;;;;;;19.50;17.90;;;;;14.83;88.40;100065.88;477659;114;378672;-78
2021/05/08 04:19:36;;;;;;;;;20.10;18.60;;;;;14.84;88.35;100067.54;480123;113;376709;-75
2021/05/08 04:20:42;;;;;;;;;19.00;16.80;;;;;14.86;88.36;100059.37;477439;114;379190;-77
2021/05/08 04:21:45;;;;;;;;;23.10;19.90;;;;;14.86;88.36;100059.37;479911;113;379056;-77
2021/05/08 04:22:49;;;;;;;;;27.40;25.10;;;;;14.86;89.01;100058.52;478067;114;383051;-78
2021/05/08 04:23:53;;;;;;;;;20.30;20.00;;;;;14.83;87.78;100057.84;479622;113;380237;-79
2021/05/08 04:24:57;;;;;;;;;28.50;24.80;;;;;14.83;87.78;100057.84;480079;113;383892;-77
2021/05/08 04:26:00;;;;;;;;;25.00;22.90;;;;;14.82;87.47;100061.52;479641;113;381388;-81
2021/05/08 04:27:05;;;;;;;;;21.80;18.10;;;;;14.83;87.60;100060.53;480180;113;379769;-81
2021/05/08 04:28:10;;;;;;;;;20.30;19.20;;;;;14.83;87.60;100060.53;479644;113;374896;-76
2021/05/08 04:29:13;;;;;;;;;20.90;19.80;;;;;14.84;88.07;100061.34;479820;113;380030;-80
2021/05/08 04:30:21;;;;;;;;;19.80;17.40;;;;;14.84;87.54;100070.22;479417;113;379216;-75
2021/05/08 04:31:25;;;;;;;;;21.60;20.00;;;;;14.81;88.23;100077.72;479603;113;374333;-75
2021/05/08 04:32:29;;;;;;;;;21.10;19.30;;;;;14.81;88.23;100077.72;480206;113;378183;-76
2021/05/08 04:33:32;;;;;;;;;19.40;18.20;;;;;14.79;88.25;100075.21;480094;113;382405;-75
2021/05/08 04:34:37;;;;;;;;;23.00;19.60;;;;;14.79;87.18;100064.50;480050;113;381901;-76
2021/05/08 04:35:41;;;;;;;;;24.70;19.60;;;;;14.72;87.94;100063.44;479827;113;374729;-75
2021/05/08 04:36:46;;;;;;;;;24.70;20.50;;;;;14.72;87.94;100063.44;479280;113;382525;-75
2021/05/08 04:37:50;;;;;;;;;21.60;19.00;;;;;14.68;88.35;100070.09;480067;113;381822;-75
2021/05/08 04:38:54;;;;;;;;;22.20;18.70;;;;;14.66;88.33;100068.56;480055;113;374738;-76
2021/05/08 04:39:58;;;;;;;;;19.20;18.90;;;;;14.64;90.25;100058.03;480063;113;382051;-76
2021/05/08 04:41:02;;;;;;;;;44.40;36.40;;;;;14.66;88.94;100052.51;479995;113;384856;-78
2021/05/08 04:42:06;;;;;;;;;53.90;43.70;;;;;14.65;88.81;100054.34;480012;113;386083;-76
2021/05/08 04:43:10;;;;;;;;;38.90;33.30;;;;;14.65;88.81;100054.34;479771;113;386634;-75
2021/05/08 04:44:14;;;;;;;;;27.80;23.80;;;;;14.65;89.17;100059.69;480046;113;383998;-74
2021/05/08 04:45:18;;;;;;;;;39.90;34.00;;;;;14.66;88.98;100050.67;472741;115;386841;-75
2021/05/08 04:46:24;;;;;;;;;25.70;22.70;;;;;14.68;89.18;100039.80;472901;115;375833;-75
2021/05/08 04:47:28;;;;;;;;;24.00;21.70;;;;;14.67;88.61;100067.58;479765;113;384674;-75
2021/05/08 04:48:33;;;;;;;;;21.10;19.00;;;;;14.67;88.61;100067.58;480125;113;377960;-75
2021/05/08 04:49:37;;;;;;;;;15.80;14.80;;;;;14.68;88.09;100072.77;479623;113;379212;-73